sensor_id;sensor_type;location;lat;lon;timestamp;pressure;altitude;pressure_sealevel;temperature;humidity
51715;BME280;39115;59.332;18.034;2022-11-11T00:00:04;100524.97;;;10.85;72.96
51715;BME280;39115;59.332;18.034;2022-11-11T00:02:30;100528.50;;;10.85;73.15
51715;BME280;39115;59.332;18.034;2022-11-11T00:04:55;100528.34;;;10.87;72.96
51715;BME280;39115;59.332;18.034;2022-11-11T00:07:20;100519.66;;;10.85;73.29
51715;BME280;39115;59.332;18.034;2022-11-11T00:09:45;100534.66;;;10.86;72.98
51715;BME280;39115;59.332;18.034;2022-11-11T00:12:11;100526.53;;;10.87;73.00
51715;BME280;39115;59.332;18.034;2022-11-11T00:14:36;100524.56;;;10.89;73.10
51715;BME280;39115;59.332;18.034;2022-11-11T00:17:01;100523.59;;;10.90;73.07
51715;BME280;39115;59.332;18.034;2022-11-11T00:19:45;100501.28;;;10.91;73.00
51715;BME280;39115;59.332;18.034;2022-11-11T00:22:29;100495.81;;;10.93;72.99
51715;BME280;39115;59.332;18.034;2022-11-11T00:25:15;100472.72;;;10.94;73.05
51715;BME280;39115;59.332;18.034;2022-11-11T00:27:40;100483.22;;;10.95;73.08
51715;BME280;39115;59.332;18.034;2022-11-11T00:30:06;100487.72;;;10.95;73.06
51715;BME280;39115;59.332;18.034;2022-11-11T00:32:31;100502.56;;;10.97;73.07
51715;BME280;39115;59.332;18.034;2022-11-11T00:34:58;100490.06;;;10.98;72.98
51715;BME280;39115;59.332;18.034;2022-11-11T00:37:43;100472.97;;;11.00;73.06
51715;BME280;39115;59.332;18.034;2022-11-11T00:40:09;100483.59;;;11.00;73.20
51715;BME280;39115;59.332;18.034;2022-11-11T00:42:35;100483.34;;;11.03;73.29
51715;BME280;39115;59.332;18.034;2022-11-11T00:45:00;100477.03;;;11.04;72.86
51715;BME280;39115;59.332;18.034;2022-11-11T00:47:26;100462.56;;;11.07;73.26
51715;BME280;39115;59.332;18.034;2022-11-11T00:50:11;100462.41;;;11.08;73.29
51715;BME280;39115;59.332;18.034;2022-11-11T00:52:54;100459.75;;;11.08;73.16
51715;BME280;39115;59.332;18.034;2022-11-11T00:55:19;100465.78;;;11.11;73.25
51715;BME280;39115;59.332;18.034;2022-11-11T00:57:45;100463.13;;;11.11;73.28
51715;BME280;39115;59.332;18.034;2022-11-11T01:00:10;100412.91;;;11.16;73.42
51715;BME280;39115;59.332;18.034;2022-11-11T01:02:36;100437.56;;;11.18;73.18
51715;BME280;39115;59.332;18.034;2022-11-11T01:05:01;100447.09;;;11.20;73.37
51715;BME280;39115;59.332;18.034;2022-11-11T01:07:26;100463.63;;;11.24;73.17
51715;BME280;39115;59.332;18.034;2022-11-11T01:09:52;100463.34;;;11.27;73.27
51715;BME280;39115;59.332;18.034;2022-11-11T01:12:17;100455.06;;;11.30;73.40
51715;BME280;39115;59.332;18.034;2022-11-11T01:14:42;100456.59;;;11.33;73.35
51715;BME280;39115;59.332;18.034;2022-11-11T01:17:08;100451.13;;;11.34;73.36
51715;BME280;39115;59.332;18.034;2022-11-11T01:19:34;100457.97;;;11.37;73.27
51715;BME280;39115;59.332;18.034;2022-11-11T01:21:59;100447.19;;;11.38;73.22
51715;BME280;39115;59.332;18.034;2022-11-11T01:24:24;100435.38;;;11.41;73.01
51715;BME280;39115;59.332;18.034;2022-11-11T01:26:49;100432.72;;;11.41;73.43
51715;BME280;39115;59.332;18.034;2022-11-11T01:29:15;100429.91;;;11.43;73.26
51715;BME280;39115;59.332;18.034;2022-11-11T01:31:40;100412.06;;;11.43;73.40
51715;BME280;39115;59.332;18.034;2022-11-11T01:34:05;100418.09;;;11.45;73.43
51715;BME280;39115;59.332;18.034;2022-11-11T01:36:31;100425.13;;;11.46;73.45
51715;BME280;39115;59.332;18.034;2022-11-11T01:38:57;100428.63;;;11.47;73.73
51715;BME280;39115;59.332;18.034;2022-11-11T01:41:24;100423.31;;;11.47;73.28
51715;BME280;39115;59.332;18.034;2022-11-11T01:46:47;100462.00;;;11.51;73.51
51715;BME280;39115;59.332;18.034;2022-11-11T01:54:15;100457.91;;;11.57;73.50
51715;BME280;39115;59.332;18.034;2022-11-11T01:56:42;100462.09;;;11.59;73.31
51715;BME280;39115;59.332;18.034;2022-11-11T01:59:09;100449.59;;;11.60;73.30
51715;BME280;39115;59.332;18.034;2022-11-11T02:01:35;100429.25;;;11.59;73.55
51715;BME280;39115;59.332;18.034;2022-11-11T02:04:01;100431.78;;;11.60;73.45
51715;BME280;39115;59.332;18.034;2022-11-11T02:06:47;100422.81;;;11.61;73.55
51715;BME280;39115;59.332;18.034;2022-11-11T02:09:14;100400.63;;;11.61;73.40
51715;BME280;39115;59.332;18.034;2022-11-11T02:11:40;100422.81;;;11.61;73.53
51715;BME280;39115;59.332;18.034;2022-11-11T02:14:24;100415.63;;;11.62;73.36
51715;BME280;39115;59.332;18.034;2022-11-11T02:17:04;100411.16;;;11.62;73.55
51715;BME280;39115;59.332;18.034;2022-11-11T02:19:43;100404.13;;;11.61;73.54
51715;BME280;39115;59.332;18.034;2022-11-11T02:22:10;100388.97;;;11.62;73.21
51715;BME280;39115;59.332;18.034;2022-11-11T02:24:37;100374.81;;;11.61;73.38
51715;BME280;39115;59.332;18.034;2022-11-11T02:27:03;100371.16;;;11.62;73.49
51715;BME280;39115;59.332;18.034;2022-11-11T02:29:30;100369.31;;;11.63;73.41
51715;BME280;39115;59.332;18.034;2022-11-11T02:31:57;100364.00;;;11.63;73.56
51715;BME280;39115;59.332;18.034;2022-11-11T02:34:29;100374.66;;;11.63;73.42
51715;BME280;39115;59.332;18.034;2022-11-11T02:36:55;100353.16;;;11.64;73.18
51715;BME280;39115;59.332;18.034;2022-11-11T02:39:20;100350.38;;;11.66;73.50
51715;BME280;39115;59.332;18.034;2022-11-11T02:41:48;100341.22;;;11.68;73.46
51715;BME280;39115;59.332;18.034;2022-11-11T02:44:23;100340.25;;;11.69;73.24
51715;BME280;39115;59.332;18.034;2022-11-11T02:46:49;100337.41;;;11.71;73.46
51715;BME280;39115;59.332;18.034;2022-11-11T02:49:14;100340.78;;;11.73;73.34
51715;BME280;39115;59.332;18.034;2022-11-11T02:51:39;100342.28;;;11.76;73.44
51715;BME280;39115;59.332;18.034;2022-11-11T02:54:05;100337.78;;;11.76;73.57
51715;BME280;39115;59.332;18.034;2022-11-11T02:56:30;100331.47;;;11.77;73.56
51715;BME280;39115;59.332;18.034;2022-11-11T02:59:14;100324.84;;;11.81;73.43
51715;BME280;39115;59.332;18.034;2022-11-11T03:01:39;100324.84;;;11.81;73.47
51715;BME280;39115;59.332;18.034;2022-11-11T03:04:05;100316.69;;;11.83;73.60
51715;BME280;39115;59.332;18.034;2022-11-11T03:06:30;100306.03;;;11.83;73.52
51715;BME280;39115;59.332;18.034;2022-11-11T03:08:55;100301.50;;;11.83;73.46
51715;BME280;39115;59.332;18.034;2022-11-11T03:11:21;100304.19;;;11.83;73.44
51715;BME280;39115;59.332;18.034;2022-11-11T03:13:53;100298.03;;;11.83;73.42
51715;BME280;39115;59.332;18.034;2022-11-11T03:16:19;100297.16;;;11.82;73.46
51715;BME280;39115;59.332;18.034;2022-11-11T03:19:03;100287.34;;;11.83;73.54
51715;BME280;39115;59.332;18.034;2022-11-11T03:21:28;100305.88;;;11.84;73.58
51715;BME280;39115;59.332;18.034;2022-11-11T03:23:53;100298.72;;;11.85;73.49
51715;BME280;39115;59.332;18.034;2022-11-11T03:26:18;100290.56;;;11.86;73.57
51715;BME280;39115;59.332;18.034;2022-11-11T03:28:44;100290.38;;;11.88;73.53
51715;BME280;39115;59.332;18.034;2022-11-11T03:31:09;100288.41;;;11.90;73.35
51715;BME280;39115;59.332;18.034;2022-11-11T03:33:34;100296.41;;;11.90;73.42
51715;BME280;39115;59.332;18.034;2022-11-11T03:36:00;100284.75;;;11.91;73.57
51715;BME280;39115;59.332;18.034;2022-11-11T03:38:25;100279.44;;;11.91;73.34
51715;BME280;39115;59.332;18.034;2022-11-11T03:40:51;100278.44;;;11.92;73.48
51715;BME280;39115;59.332;18.034;2022-11-11T03:43:17;100281.09;;;11.92;73.55
51715;BME280;39115;59.332;18.034;2022-11-11T03:45:43;100294.28;;;11.94;73.67
51715;BME280;39115;59.332;18.034;2022-11-11T03:48:09;100283.59;;;11.94;73.70
51715;BME280;39115;59.332;18.034;2022-11-11T03:50:34;100277.28;;;11.95;73.50
51715;BME280;39115;59.332;18.034;2022-11-11T03:52:59;100285.28;;;11.95;73.30
51715;BME280;39115;59.332;18.034;2022-11-11T03:55:25;100279.78;;;11.96;73.55
51715;BME280;39115;59.332;18.034;2022-11-11T03:57:50;100285.00;;;11.98;73.64
51715;BME280;39115;59.332;18.034;2022-11-11T04:00:17;100279.53;;;11.99;73.71
51715;BME280;39115;59.332;18.034;2022-11-11T04:02:42;100292.84;;;11.99;73.59
51715;BME280;39115;59.332;18.034;2022-11-11T04:05:26;100310.38;;;12.02;73.69
51715;BME280;39115;59.332;18.034;2022-11-11T04:08:16;100303.19;;;12.02;73.82
51715;BME280;39115;59.332;18.034;2022-11-11T04:11:02;100307.41;;;12.05;73.74
51715;BME280;39115;59.332;18.034;2022-11-11T04:13:30;100296.56;;;12.07;73.71
51715;BME280;39115;59.332;18.034;2022-11-11T04:16:14;100295.59;;;12.08;73.79
51715;BME280;39115;59.332;18.034;2022-11-11T04:18:39;100292.75;;;12.09;73.50
51715;BME280;39115;59.332;18.034;2022-11-11T04:21:23;100290.09;;;12.09;73.67
51715;BME280;39115;59.332;18.034;2022-11-11T04:24:07;100293.59;;;12.10;73.49
51715;BME280;39115;59.332;18.034;2022-11-11T04:26:56;100290.63;;;12.13;73.66
51715;BME280;39115;59.332;18.034;2022-11-11T04:29:22;100295.78;;;12.14;73.64
51715;BME280;39115;59.332;18.034;2022-11-11T04:31:57;100296.47;;;12.16;73.69
51715;BME280;39115;59.332;18.034;2022-11-11T04:34:41;100300.81;;;12.17;73.58
51715;BME280;39115;59.332;18.034;2022-11-11T04:37:07;100288.00;;;12.21;73.70
51715;BME280;39115;59.332;18.034;2022-11-11T04:39:32;100301.03;;;12.24;73.73
51715;BME280;39115;59.332;18.034;2022-11-11T04:42:16;100279.38;;;12.27;73.64
51715;BME280;39115;59.332;18.034;2022-11-11T04:44:42;100277.38;;;12.29;73.76
51715;BME280;39115;59.332;18.034;2022-11-11T04:47:26;100285.06;;;12.32;73.57
51715;BME280;39115;59.332;18.034;2022-11-11T04:49:51;100264.25;;;12.36;73.56
51715;BME280;39115;59.332;18.034;2022-11-11T04:52:16;100263.09;;;12.39;73.64
51715;BME280;39115;59.332;18.034;2022-11-11T04:54:50;100266.28;;;12.42;73.62
51715;BME280;39115;59.332;18.034;2022-11-11T04:57:37;100262.28;;;12.46;73.54
51715;BME280;39115;59.332;18.034;2022-11-11T05:00:03;100264.66;;;12.49;73.48
51715;BME280;39115;59.332;18.034;2022-11-11T05:02:28;100263.50;;;12.52;73.49
51715;BME280;39115;59.332;18.034;2022-11-11T05:05:12;100261.34;;;12.56;73.60
51715;BME280;39115;59.332;18.034;2022-11-11T05:07:38;100287.72;;;12.59;73.57
51715;BME280;39115;59.332;18.034;2022-11-11T05:10:22;100277.56;;;12.62;73.62
51715;BME280;39115;59.332;18.034;2022-11-11T05:12:47;100291.44;;;12.66;73.58
51715;BME280;39115;59.332;18.034;2022-11-11T05:15:12;100297.44;;;12.68;73.57
51715;BME280;39115;59.332;18.034;2022-11-11T05:17:56;100312.31;;;12.71;73.38
51715;BME280;39115;59.332;18.034;2022-11-11T05:20:40;100318.31;;;12.73;73.44
51715;BME280;39115;59.332;18.034;2022-11-11T05:23:24;100318.00;;;12.76;73.39
51715;BME280;39115;59.332;18.034;2022-11-11T05:26:09;100308.69;;;12.80;73.49
51715;BME280;39115;59.332;18.034;2022-11-11T05:28:34;100296.84;;;12.83;73.56
51715;BME280;39115;59.332;18.034;2022-11-11T05:31:00;100298.19;;;12.87;73.40
51715;BME280;39115;59.332;18.034;2022-11-11T05:33:25;100274.38;;;12.93;73.33
51715;BME280;39115;59.332;18.034;2022-11-11T05:35:50;100277.19;;;13.00;73.35
51715;BME280;39115;59.332;18.034;2022-11-11T05:38:15;100293.44;;;13.07;73.40
51715;BME280;39115;59.332;18.034;2022-11-11T05:40:47;100304.31;;;13.13;73.06
51715;BME280;39115;59.332;18.034;2022-11-11T05:43:12;100301.81;;;13.20;73.30
51715;BME280;39115;59.332;18.034;2022-11-11T05:45:39;100301.16;;;13.26;73.22
51715;BME280;39115;59.332;18.034;2022-11-11T05:48:05;100313.88;;;13.33;73.35
51715;BME280;39115;59.332;18.034;2022-11-11T05:50:30;100306.22;;;13.38;72.99
51715;BME280;39115;59.332;18.034;2022-11-11T05:52:55;100304.06;;;13.41;72.95
51715;BME280;39115;59.332;18.034;2022-11-11T05:55:21;100315.28;;;13.45;72.98
51715;BME280;39115;59.332;18.034;2022-11-11T05:57:46;100299.75;;;13.49;72.97
51715;BME280;39115;59.332;18.034;2022-11-11T06:00:11;100312.63;;;13.53;73.05
51715;BME280;39115;59.332;18.034;2022-11-11T06:02:37;100298.94;;;13.56;72.93
51715;BME280;39115;59.332;18.034;2022-11-11T06:05:03;100283.41;;;13.60;73.07
51715;BME280;39115;59.332;18.034;2022-11-11T06:07:28;100276.03;;;13.62;72.94
51715;BME280;39115;59.332;18.034;2022-11-11T06:09:53;100264.16;;;13.65;72.97
51715;BME280;39115;59.332;18.034;2022-11-11T06:12:42;100272.03;;;13.66;72.96
51715;BME280;39115;59.332;18.034;2022-11-11T06:15:26;100273.53;;;13.69;73.06
51715;BME280;39115;59.332;18.034;2022-11-11T06:17:51;100275.88;;;13.72;72.95
51715;BME280;39115;59.332;18.034;2022-11-11T06:20:17;100273.03;;;13.73;73.16
51715;BME280;39115;59.332;18.034;2022-11-11T06:22:42;100260.16;;;13.77;72.78
51715;BME280;39115;59.332;18.034;2022-11-11T06:25:26;100286.72;;;13.79;73.10
51715;BME280;39115;59.332;18.034;2022-11-11T06:28:11;100291.59;;;13.83;72.76
51715;BME280;39115;59.332;18.034;2022-11-11T06:30:37;100271.53;;;13.87;72.85
51715;BME280;39115;59.332;18.034;2022-11-11T06:33:02;100279.19;;;13.90;72.81
51715;BME280;39115;59.332;18.034;2022-11-11T06:35:27;100272.53;;;13.95;72.82
51715;BME280;39115;59.332;18.034;2022-11-11T06:37:53;100298.94;;;13.98;72.57
51715;BME280;39115;59.332;18.034;2022-11-11T06:40:18;100294.94;;;14.02;72.53
51715;BME280;39115;59.332;18.034;2022-11-11T06:42:43;100286.53;;;14.05;72.81
51715;BME280;39115;59.332;18.034;2022-11-11T06:45:09;100268.31;;;14.08;72.54
51715;BME280;39115;59.332;18.034;2022-11-11T06:47:34;100265.50;;;14.10;72.64
51715;BME280;39115;59.332;18.034;2022-11-11T06:49:59;100275.00;;;14.13;72.45
51715;BME280;39115;59.332;18.034;2022-11-11T06:52:25;100280.19;;;14.14;72.58
51715;BME280;39115;59.332;18.034;2022-11-11T06:54:50;100269.31;;;14.16;72.32
51715;BME280;39115;59.332;18.034;2022-11-11T06:57:15;100272.84;;;14.16;72.60
51715;BME280;39115;59.332;18.034;2022-11-11T06:59:41;100273.50;;;14.18;72.52
51715;BME280;39115;59.332;18.034;2022-11-11T07:02:07;100278.84;;;14.18;72.44
51715;BME280;39115;59.332;18.034;2022-11-11T07:04:38;100258.94;;;14.21;72.34
51715;BME280;39115;59.332;18.034;2022-11-11T07:07:03;100268.47;;;14.23;72.59
51715;BME280;39115;59.332;18.034;2022-11-11T07:09:29;100268.28;;;14.25;72.40
51715;BME280;39115;59.332;18.034;2022-11-11T07:11:54;100262.78;;;14.27;72.53
51715;BME280;39115;59.332;18.034;2022-11-11T07:14:19;100256.25;;;14.29;72.29
51715;BME280;39115;59.332;18.034;2022-11-11T07:16:44;100276.66;;;14.30;72.18
51715;BME280;39115;59.332;18.034;2022-11-11T07:19:10;100276.66;;;14.30;72.49
51715;BME280;39115;59.332;18.034;2022-11-11T07:21:35;100289.00;;;14.31;72.21
51715;BME280;39115;59.332;18.034;2022-11-11T07:24:01;100298.91;;;14.31;72.21
51715;BME280;39115;59.332;18.034;2022-11-11T07:26:26;100287.19;;;14.32;72.12
51715;BME280;39115;59.332;18.034;2022-11-11T07:28:51;100288.00;;;14.32;72.10
51715;BME280;39115;59.332;18.034;2022-11-11T07:31:17;100320.00;;;14.34;72.21
51715;BME280;39115;59.332;18.034;2022-11-11T07:33:42;100303.94;;;14.34;72.38
51715;BME280;39115;59.332;18.034;2022-11-11T07:36:07;100289.50;;;14.35;72.00
51715;BME280;39115;59.332;18.034;2022-11-11T07:38:33;100308.25;;;14.35;72.15
51715;BME280;39115;59.332;18.034;2022-11-11T07:40:58;100309.09;;;14.35;72.35
51715;BME280;39115;59.332;18.034;2022-11-11T07:43:23;100299.22;;;14.36;72.18
51715;BME280;39115;59.332;18.034;2022-11-11T07:45:49;100313.28;;;14.38;72.06
51715;BME280;39115;59.332;18.034;2022-11-11T07:48:14;100295.34;;;14.38;71.97
51715;BME280;39115;59.332;18.034;2022-11-11T07:50:40;100303.25;;;14.40;72.18
51715;BME280;39115;59.332;18.034;2022-11-11T07:53:05;100301.38;;;14.41;72.17
51715;BME280;39115;59.332;18.034;2022-11-11T07:55:30;100287.84;;;14.42;72.11
51715;BME280;39115;59.332;18.034;2022-11-11T07:57:58;100301.25;;;14.42;72.11
51715;BME280;39115;59.332;18.034;2022-11-11T08:00:24;100306.22;;;14.45;71.86
51715;BME280;39115;59.332;18.034;2022-11-11T08:02:49;100304.22;;;14.47;72.02
51715;BME280;39115;59.332;18.034;2022-11-11T08:05:15;100313.09;;;14.48;72.01
51715;BME280;39115;59.332;18.034;2022-11-11T08:07:40;100315.63;;;14.49;72.09
51715;BME280;39115;59.332;18.034;2022-11-11T08:10:06;100314.56;;;14.50;71.94
51715;BME280;39115;59.332;18.034;2022-11-11T08:12:32;100341.22;;;14.52;72.02
51715;BME280;39115;59.332;18.034;2022-11-11T08:15:16;100318.09;;;14.51;71.68
51715;BME280;39115;59.332;18.034;2022-11-11T08:17:41;100307.22;;;14.52;72.16
51715;BME280;39115;59.332;18.034;2022-11-11T08:20:07;100316.94;;;14.53;71.78
51715;BME280;39115;59.332;18.034;2022-11-11T08:22:36;100314.25;;;14.53;71.73
51715;BME280;39115;59.332;18.034;2022-11-11T08:25:02;100333.84;;;14.54;71.94
51715;BME280;39115;59.332;18.034;2022-11-11T08:27:27;100330.13;;;14.55;71.94
51715;BME280;39115;59.332;18.034;2022-11-11T08:29:53;100322.94;;;14.55;72.01
51715;BME280;39115;59.332;18.034;2022-11-11T08:32:18;100337.16;;;14.56;71.68
51715;BME280;39115;59.332;18.034;2022-11-11T08:34:43;100326.31;;;14.58;71.92
51715;BME280;39115;59.332;18.034;2022-11-11T08:37:08;100322.78;;;14.57;72.11
51715;BME280;39115;59.332;18.034;2022-11-11T08:39:34;100329.81;;;14.58;71.62
51715;BME280;39115;59.332;18.034;2022-11-11T08:41:59;100352.06;;;14.59;71.93
51715;BME280;39115;59.332;18.034;2022-11-11T08:44:24;100344.50;;;14.62;72.02
51715;BME280;39115;59.332;18.034;2022-11-11T08:46:50;100341.00;;;14.62;71.72
51715;BME280;39115;59.332;18.034;2022-11-11T08:49:15;100350.72;;;14.63;71.85
51715;BME280;39115;59.332;18.034;2022-11-11T08:51:40;100346.19;;;14.63;71.66
51715;BME280;39115;59.332;18.034;2022-11-11T08:54:05;100380.72;;;14.66;71.88
51715;BME280;39115;59.332;18.034;2022-11-11T08:56:31;100352.75;;;14.69;71.76
51715;BME280;39115;59.332;18.034;2022-11-11T08:58:56;100372.16;;;14.71;71.52
51715;BME280;39115;59.332;18.034;2022-11-11T09:01:21;100369.31;;;14.73;71.63
51715;BME280;39115;59.332;18.034;2022-11-11T09:03:47;100385.06;;;14.76;71.74
51715;BME280;39115;59.332;18.034;2022-11-11T09:06:12;100378.69;;;14.77;71.67
51715;BME280;39115;59.332;18.034;2022-11-11T09:08:40;100380.34;;;14.78;71.69
51715;BME280;39115;59.332;18.034;2022-11-11T09:11:05;100388.22;;;14.79;71.64
51715;BME280;39115;59.332;18.034;2022-11-11T09:13:30;100373.81;;;14.80;71.68
51715;BME280;39115;59.332;18.034;2022-11-11T09:15:55;100396.09;;;14.81;71.69
51715;BME280;39115;59.332;18.034;2022-11-11T09:18:22;100396.91;;;14.81;71.59
51715;BME280;39115;59.332;18.034;2022-11-11T09:20:47;100393.22;;;14.82;71.61
51715;BME280;39115;59.332;18.034;2022-11-11T09:23:12;100401.09;;;14.84;71.46
51715;BME280;39115;59.332;18.034;2022-11-11T09:25:37;100422.38;;;14.85;71.62
51715;BME280;39115;59.332;18.034;2022-11-11T09:28:03;100401.59;;;14.88;71.69
51715;BME280;39115;59.332;18.034;2022-11-11T09:30:28;100401.41;;;14.89;71.75
51715;BME280;39115;59.332;18.034;2022-11-11T09:32:54;100400.41;;;14.90;71.71
51715;BME280;39115;59.332;18.034;2022-11-11T09:35:19;100410.97;;;14.92;71.50
51715;BME280;39115;59.332;18.034;2022-11-11T09:37:54;100396.56;;;14.93;71.68
51715;BME280;39115;59.332;18.034;2022-11-11T09:40:21;100392.88;;;14.94;71.59
51715;BME280;39115;59.332;18.034;2022-11-11T09:43:02;100392.69;;;14.95;71.32
51715;BME280;39115;59.332;18.034;2022-11-11T09:45:41;100399.72;;;14.96;71.29
51715;BME280;39115;59.332;18.034;2022-11-11T09:50:36;100402.91;;;15.00;71.22
51715;BME280;39115;59.332;18.034;2022-11-11T09:58:03;100409.41;;;15.06;71.53
51715;BME280;39115;59.332;18.034;2022-11-11T10:00:34;100421.81;;;15.07;71.59
51715;BME280;39115;59.332;18.034;2022-11-11T10:03:04;100425.13;;;15.09;71.54
51715;BME280;39115;59.332;18.034;2022-11-11T10:08:25;100428.84;;;15.08;71.49
51715;BME280;39115;59.332;18.034;2022-11-11T10:10:51;100439.56;;;15.08;71.63
51715;BME280;39115;59.332;18.034;2022-11-11T10:13:23;100434.22;;;15.08;71.52
51715;BME280;39115;59.332;18.034;2022-11-11T10:20:47;100447.44;;;15.09;71.21
51715;BME280;39115;59.332;18.034;2022-11-11T10:23:16;100459.84;;;15.10;71.33
51715;BME280;39115;59.332;18.034;2022-11-11T10:25:45;100455.28;;;15.11;71.37
51715;BME280;39115;59.332;18.034;2022-11-11T10:28:14;100458.81;;;15.11;71.19
51715;BME280;39115;59.332;18.034;2022-11-11T10:30:41;100454.28;;;15.12;71.32
51715;BME280;39115;59.332;18.034;2022-11-11T10:33:26;100468.38;;;15.14;71.22
51715;BME280;39115;59.332;18.034;2022-11-11T10:35:52;100454.78;;;15.15;71.47
51715;BME280;39115;59.332;18.034;2022-11-11T10:38:34;100470.88;;;15.15;71.28
51715;BME280;39115;59.332;18.034;2022-11-11T10:41:07;100465.31;;;15.17;71.32
51715;BME280;39115;59.332;18.034;2022-11-11T10:43:35;100465.19;;;15.18;71.53
51715;BME280;39115;59.332;18.034;2022-11-11T10:46:03;100468.50;;;15.21;71.23
51715;BME280;39115;59.332;18.034;2022-11-11T10:51:02;100464.66;;;15.23;71.44
51715;BME280;39115;59.332;18.034;2022-11-11T10:53:30;100488.59;;;15.25;71.29
51715;BME280;39115;59.332;18.034;2022-11-11T10:58:26;100475.88;;;15.27;71.28
51715;BME280;39115;59.332;18.034;2022-11-11T11:00:52;100485.59;;;15.28;71.20
51715;BME280;39115;59.332;18.034;2022-11-11T11:03:21;100475.69;;;15.28;71.12
51715;BME280;39115;59.332;18.034;2022-11-11T11:05:58;100486.09;;;15.31;71.39
51715;BME280;39115;59.332;18.034;2022-11-11T11:08:28;100481.56;;;15.32;71.08
51715;BME280;39115;59.332;18.034;2022-11-11T11:10:57;100485.06;;;15.32;71.32
51715;BME280;39115;59.332;18.034;2022-11-11T11:16:03;100486.72;;;15.33;71.28
51715;BME280;39115;59.332;18.034;2022-11-11T11:18:29;100485.06;;;15.32;71.45
51715;BME280;39115;59.332;18.034;2022-11-11T11:26:01;100494.78;;;15.33;71.35
51715;BME280;39115;59.332;18.034;2022-11-11T11:28:29;100496.44;;;15.34;71.31
51715;BME280;39115;59.332;18.034;2022-11-11T11:31:05;100486.72;;;15.33;71.32
51715;BME280;39115;59.332;18.034;2022-11-11T11:34:16;100483.03;;;15.34;71.35
51715;BME280;39115;59.332;18.034;2022-11-11T11:36:16;100491.75;;;15.37;71.13
51715;BME280;39115;59.332;18.034;2022-11-11T11:38:46;100516.56;;;15.39;71.31
51715;BME280;39115;59.332;18.034;2022-11-11T11:41:12;100497.78;;;15.39;71.24
51715;BME280;39115;59.332;18.034;2022-11-11T11:43:40;100518.88;;;15.42;71.15
51715;BME280;39115;59.332;18.034;2022-11-11T11:46:18;100510.69;;;15.43;71.26
51715;BME280;39115;59.332;18.034;2022-11-11T11:56:47;100495.41;;;15.52;70.90
51715;BME280;39115;59.332;18.034;2022-11-11T11:59:15;100493.19;;;15.56;70.90
51715;BME280;39115;59.332;18.034;2022-11-11T12:09:22;100493.34;;;15.62;70.78
51715;BME280;39115;59.332;18.034;2022-11-11T12:30:24;100513.78;;;15.63;71.06
51715;BME280;39115;59.332;18.034;2022-11-11T12:33:05;100521.00;;;15.63;70.84
51715;BME280;39115;59.332;18.034;2022-11-11T12:38:25;100537.94;;;15.63;70.97
51715;BME280;39115;59.332;18.034;2022-11-11T12:41:02;100529.88;;;15.63;70.90
51715;BME280;39115;59.332;18.034;2022-11-11T13:01:54;100554.19;;;15.62;70.78
51715;BME280;39115;59.332;18.034;2022-11-11T13:12:23;100558.91;;;15.60;70.71
51715;BME280;39115;59.332;18.034;2022-11-11T13:15:13;100562.63;;;15.59;70.89
51715;BME280;39115;59.332;18.034;2022-11-11T13:17:35;100563.63;;;15.58;70.79
51715;BME280;39115;59.332;18.034;2022-11-11T13:22:47;100564.63;;;15.57;70.93
51715;BME280;39115;59.332;18.034;2022-11-11T13:25:23;100574.69;;;15.55;70.80
51715;BME280;39115;59.332;18.034;2022-11-11T13:28:02;100578.38;;;15.54;71.02
51715;BME280;39115;59.332;18.034;2022-11-11T13:33:17;100582.91;;;15.53;70.75
51715;BME280;39115;59.332;18.034;2022-11-11T13:35:57;100572.19;;;15.53;70.97
51715;BME280;39115;59.332;18.034;2022-11-11T13:38:34;100581.91;;;15.54;70.95
51715;BME280;39115;59.332;18.034;2022-11-11T13:41:04;100579.22;;;15.54;71.04
51715;BME280;39115;59.332;18.034;2022-11-11T13:45:57;100560.25;;;15.56;70.91
51715;BME280;39115;59.332;18.034;2022-11-11T13:50:48;100569.13;;;15.56;70.78
51715;BME280;39115;59.332;18.034;2022-11-11T13:55:51;100565.81;;;15.54;70.87
51715;BME280;39115;59.332;18.034;2022-11-11T13:58:25;100560.44;;;15.54;70.98
51715;BME280;39115;59.332;18.034;2022-11-11T14:00:58;100575.88;;;15.52;70.71
51715;BME280;39115;59.332;18.034;2022-11-11T14:06:27;100587.78;;;15.49;71.10
51715;BME280;39115;59.332;18.034;2022-11-11T14:11:25;100585.44;;;15.46;70.95
51715;BME280;39115;59.332;18.034;2022-11-11T14:13:52;100578.38;;;15.45;71.01
51715;BME280;39115;59.332;18.034;2022-11-11T14:24:24;100608.88;;;15.44;71.04
51715;BME280;39115;59.332;18.034;2022-11-11T14:26:57;100604.56;;;15.43;71.05
51715;BME280;39115;59.332;18.034;2022-11-11T14:29:23;100609.94;;;15.43;70.82
51715;BME280;39115;59.332;18.034;2022-11-11T14:31:59;100609.94;;;15.43;70.99
51715;BME280;39115;59.332;18.034;2022-11-11T14:34:33;100601.88;;;15.43;70.84
51715;BME280;39115;59.332;18.034;2022-11-11T14:37:14;100603.53;;;15.44;71.06
51715;BME280;39115;59.332;18.034;2022-11-11T14:39:51;100594.47;;;15.45;70.94
51715;BME280;39115;59.332;18.034;2022-11-11T14:42:51;100614.09;;;15.46;71.09
51715;BME280;39115;59.332;18.034;2022-11-11T14:45:49;100609.38;;;15.48;71.01
51715;BME280;39115;59.332;18.034;2022-11-11T14:50:50;100606.88;;;15.46;71.11
51715;BME280;39115;59.332;18.034;2022-11-11T14:53:16;100622.16;;;15.46;70.93
51715;BME280;39115;59.332;18.034;2022-11-11T14:55:43;100614.94;;;15.46;70.96
51715;BME280;39115;59.332;18.034;2022-11-11T14:58:16;100618.47;;;15.47;70.95